Troy, Alabama
Current Conditions -  °F | °C
As of 12:53 PM on Thursday 30 Oct 2014 (Local Time) from KTOI Reporting Station
Clear Clear  
Wind Chill: 20°   Ceiling: Unl
Heat Index: 20°   Visibility: 10mi
Dew Point:   Wind: 12mph
Humidity: 31%   Direction: 350°N
Pressure: 30.05"   Gusts: 18mph
Location:  31.81°N, 85.97°W
Report Text: KTOI 301753Z AUTO 35010G16KT 10SM CLR 20/02 A3005 RMK AO2 SLP174 T02000022 10211 20100 58019
Loading
Personal Weather Stations






























Interactive Weather Map
Tropical Storm Tracking
New forecast layout! Learn more

10-Day Weather Forecast

Advertisements
Track Severe Weather on mobile